Time;durP1;ratioP1;P1;durP2;ratioP2;P2;SDS_P1;SDS_P2;PMS_P1;PMS_P2;Temp;Humidity;BMP_temperature;BMP_pressure;BME280_temperature;BME280_humidity;BME280_pressure;Samples;Min_cycle;Max_cycle;Signal;HPM_P1;HPM_P2
2023/12/17 00:02:03;;;;;;;13.35;8.18;;;10.70;99.90;;;;;;5010341;28;20090;-66
2023/12/17 00:04:29;;;;;;;14.43;7.97;;;10.70;99.90;;;;;;4992677;28;20078;-67
2023/12/17 00:06:54;;;;;;;16.05;7.97;;;10.70;99.90;;;;;;4983731;28;20070;-67
2023/12/17 00:11:55;;;;;;;14.68;8.02;;;10.70;99.90;;;;;;5313779;22;20467;-66
2023/12/17 00:14:21;;;;;;;17.23;7.95;;;10.60;99.90;;;;;;5009284;28;20500;-67
2023/12/17 00:16:46;;;;;;;14.38;7.70;;;10.70;99.90;;;;;;4992817;28;20046;-67
2023/12/17 00:19:12;;;;;;;11.10;7.05;;;10.70;99.90;;;;;;5007260;28;20785;-67
2023/12/17 00:21:37;;;;;;;16.77;7.97;;;10.60;99.90;;;;;;4984769;28;20479;-67
2023/12/17 00:24:03;;;;;;;12.98;7.80;;;10.60;99.90;;;;;;5041924;23;20040;-67
2023/12/17 00:26:29;;;;;;;14.55;7.82;;;10.70;99.90;;;;;;5070505;28;20040;-67
2023/12/17 00:28:54;;;;;;;15.32;7.75;;;10.60;99.90;;;;;;5058516;28;20036;-67
2023/12/17 00:31:20;;;;;;;15.27;8.32;;;10.60;99.90;;;;;;5067956;28;20052;-67
2023/12/17 00:33:46;;;;;;;11.80;6.93;;;10.70;99.90;;;;;;5064976;28;20151;-66
2023/12/17 00:36:12;;;;;;;14.18;7.55;;;10.60;99.90;;;;;;5041954;28;20494;-67
2023/12/17 00:38:38;;;;;;;12.32;7.47;;;10.60;99.90;;;;;;5038991;28;20063;-67
2023/12/17 00:41:04;;;;;;;12.30;7.05;;;10.60;99.90;;;;;;5039351;28;20466;-66
2023/12/17 00:43:29;;;;;;;12.80;7.40;;;10.50;99.90;;;;;;5041216;28;20048;-65
2023/12/17 00:45:55;;;;;;;12.40;6.97;;;10.60;99.90;;;;;;5043421;28;20491;-67
2023/12/17 00:48:20;;;;;;;13.10;7.60;;;10.50;99.90;;;;;;5047853;28;20588;-65
2023/12/17 00:50:46;;;;;;;15.23;7.22;;;10.60;99.90;;;;;;5049891;28;20040;-65
2023/12/17 00:53:11;;;;;;;14.77;7.72;;;10.60;99.90;;;;;;5049020;28;20033;-68
2023/12/17 00:55:37;;;;;;;14.60;7.55;;;10.60;99.90;;;;;;5026323;28;20044;-65
2023/12/17 00:58:02;;;;;;;13.85;7.80;;;10.60;99.90;;;;;;5053252;28;20035;-66
2023/12/17 01:00:28;;;;;;;15.18;7.20;;;10.60;99.90;;;;;;5047997;28;20148;-66
2023/12/17 01:02:53;;;;;;;14.32;6.47;;;10.60;99.90;;;;;;5045520;28;20530;-65
2023/12/17 01:05:19;;;;;;;13.40;7.45;;;10.60;99.90;;;;;;5050842;28;20494;-67
2023/12/17 01:07:44;;;;;;;16.30;7.38;;;10.60;99.90;;;;;;5053202;28;20048;-67
2023/12/17 01:10:10;;;;;;;13.23;8.23;;;10.70;99.90;;;;;;5050248;28;20414;-66
2023/12/17 01:12:36;;;;;;;14.18;7.07;;;10.60;99.90;;;;;;5047175;28;20044;-67
2023/12/17 01:15:01;;;;;;;14.95;7.32;;;10.60;99.90;;;;;;5052914;28;20049;-67
2023/12/17 01:17:27;;;;;;;14.82;7.60;;;10.60;99.90;;;;;;5029754;28;20056;-67
2023/12/17 01:19:52;;;;;;;14.20;7.82;;;10.60;99.90;;;;;;5050395;28;20052;-65
2023/12/17 01:22:18;;;;;;;13.70;7.45;;;10.60;99.90;;;;;;5052643;28;20132;-65
2023/12/17 01:24:43;;;;;;;14.73;8.05;;;10.60;99.90;;;;;;5052670;28;20051;-67
2023/12/17 01:27:09;;;;;;;16.00;8.00;;;10.60;99.90;;;;;;5043900;28;20075;-67
2023/12/17 01:29:34;;;;;;;14.20;8.05;;;10.60;99.90;;;;;;5052114;28;20743;-66
2023/12/17 01:32:00;;;;;;;14.88;7.88;;;10.60;99.90;;;;;;5053233;28;20045;-65
2023/12/17 01:34:26;;;;;;;15.63;8.30;;;10.60;99.90;;;;;;5040752;28;20069;-65
2023/12/17 01:36:51;;;;;;;16.02;8.40;;;10.60;99.90;;;;;;5023722;28;20045;-65
2023/12/17 01:39:17;;;;;;;16.95;8.02;;;10.60;99.90;;;;;;5052725;28;20029;-65
2023/12/17 01:41:44;;;;;;;15.30;8.60;;;10.60;99.90;;;;;;5052542;28;20554;-66
2023/12/17 01:44:11;;;;;;;15.45;8.48;;;10.60;99.90;;;;;;5045215;28;20072;-65
2023/12/17 01:46:37;;;;;;;19.27;9.10;;;10.60;99.90;;;;;;5052325;28;20045;-65
2023/12/17 01:49:04;;;;;;;14.38;8.65;;;10.60;99.90;;;;;;5052519;28;20040;-67
2023/12/17 01:51:31;;;;;;;17.23;8.40;;;10.60;99.90;;;;;;5042877;28;20419;-67
2023/12/17 01:53:57;;;;;;;15.02;8.00;;;10.60;99.90;;;;;;5044122;28;20037;-65
2023/12/17 01:56:24;;;;;;;18.80;9.10;;;10.60;99.90;;;;;;5052001;28;20077;-65
2023/12/17 01:58:50;;;;;;;18.55;9.05;;;10.60;99.90;;;;;;5052492;28;20116;-65
2023/12/17 02:01:15;;;;;;;14.02;8.13;;;10.60;99.90;;;;;;5047613;28;20515;-68
2023/12/17 02:03:42;;;;;;;20.08;9.18;;;10.50;99.90;;;;;;5050616;28;20518;-68
2023/12/17 02:06:09;;;;;;;15.70;8.80;;;10.60;99.90;;;;;;5052373;28;20048;-66
2023/12/17 02:08:35;;;;;;;22.50;9.50;;;10.60;99.90;;;;;;5043026;28;20033;-64
2023/12/17 02:11:00;;;;;;;15.10;8.73;;;10.60;99.90;;;;;;5049350;28;20778;-66
2023/12/17 02:13:26;;;;;;;18.75;9.18;;;10.60;99.90;;;;;;5051723;28;20131;-66
2023/12/17 02:15:51;;;;;;;20.05;8.80;;;10.60;99.90;;;;;;5052327;28;20033;-67
2023/12/17 02:18:17;;;;;;;15.00;9.02;;;10.60;99.90;;;;;;5045216;28;20174;-66
2023/12/17 02:20:46;;;;;;;17.45;9.05;;;10.60;99.90;;;;;;5051824;28;20498;-65
2023/12/17 02:23:12;;;;;;;17.15;9.45;;;10.50;99.90;;;;;;5051887;28;20044;-64
2023/12/17 02:25:37;;;;;;;17.33;9.48;;;10.60;99.90;;;;;;5047624;28;20410;-67
2023/12/17 02:28:03;;;;;;;16.67;9.65;;;10.50;99.90;;;;;;5051438;28;20047;-64
2023/12/17 02:30:28;;;;;;;20.50;10.05;;;10.50;99.90;;;;;;5044677;28;20037;-65
2023/12/17 02:32:54;;;;;;;17.70;9.73;;;10.60;99.90;;;;;;5051351;28;20119;-68
2023/12/17 02:35:21;;;;;;;18.65;10.10;;;10.60;99.90;;;;;;5051707;28;20427;-64
2023/12/17 02:37:48;;;;;;;19.77;9.73;;;10.60;99.90;;;;;;5049996;28;20445;-70
2023/12/17 02:40:14;;;;;;;20.02;9.20;;;10.60;99.90;;;;;;5043751;28;20033;-65
2023/12/17 02:42:39;;;;;;;17.98;8.23;;;10.60;99.90;;;;;;5050495;28;20040;-64
2023/12/17 02:45:07;;;;;;;17.33;8.80;;;10.60;99.90;;;;;;5051315;28;20041;-65
2023/12/17 02:47:32;;;;;;;19.27;9.25;;;10.60;99.90;;;;;;5040471;28;20036;-64
2023/12/17 02:49:58;;;;;;;17.50;8.60;;;10.60;99.90;;;;;;5051096;28;20154;-68
2023/12/17 02:52:23;;;;;;;17.15;9.52;;;10.60;99.90;;;;;;5050999;28;20104;-67
2023/12/17 02:54:49;;;;;;;16.17;8.80;;;10.60;99.90;;;;;;5051041;28;20076;-67
2023/12/17 02:57:15;;;;;;;18.17;8.80;;;10.60;99.90;;;;;;5044450;28;20037;-67
2023/12/17 02:59:40;;;;;;;18.90;8.63;;;10.60;99.90;;;;;;5050548;28;20039;-67
2023/12/17 03:02:06;;;;;;;16.88;9.10;;;10.60;99.90;;;;;;5050382;28;20128;-64
2023/12/17 03:04:31;;;;;;;17.73;9.57;;;10.60;99.90;;;;;;5033012;28;20483;-67
2023/12/17 03:06:57;;;;;;;15.27;8.57;;;10.60;99.90;;;;;;5051002;28;20033;-67
2023/12/17 03:09:23;;;;;;;24.63;9.05;;;10.60;99.90;;;;;;5050620;28;20045;-67
2023/12/17 03:11:48;;;;;;;15.77;8.35;;;10.60;99.90;;;;;;5042624;28;20037;-67
2023/12/17 03:14:14;;;;;;;20.23;9.50;;;10.60;99.90;;;;;;5024785;28;20087;-68
2023/12/17 03:16:41;;;;;;;19.45;9.30;;;10.60;99.90;;;;;;5050767;28;20041;-67
2023/12/17 03:19:06;;;;;;;18.02;8.95;;;10.50;99.90;;;;;;5046609;28;20045;-67
2023/12/17 03:21:32;;;;;;;18.23;9.00;;;10.60;99.90;;;;;;5040653;28;20032;-67
2023/12/17 03:23:57;;;;;;;18.55;9.23;;;10.60;99.90;;;;;;5050137;28;20033;-65
2023/12/17 03:26:23;;;;;;;18.73;9.10;;;10.60;99.90;;;;;;5048304;28;20044;-67
2023/12/17 03:28:49;;;;;;;17.88;8.80;;;10.60;99.90;;;;;;5039626;28;20047;-68
2023/12/17 03:31:15;;;;;;;16.35;8.18;;;10.60;99.90;;;;;;5050405;28;20033;-67
2023/12/17 03:33:44;;;;;;;17.13;8.70;;;10.60;99.90;;;;;;5050415;28;20040;-67
2023/12/17 03:36:14;;;;;;;16.55;9.02;;;10.60;99.90;;;;;;5037582;28;20049;-66
2023/12/17 03:38:45;;;;;;;18.02;8.52;;;10.60;99.90;;;;;;5044387;28;20036;-66
2023/12/17 03:41:24;;;;;;;20.80;9.03;;;10.60;99.90;;;;;;5050449;28;20029;-68
2023/12/17 03:43:53;;;;;;;13.63;8.48;;;10.70;99.90;;;;;;5046838;28;20487;-67
2023/12/17 03:46:19;;;;;;;17.75;8.32;;;10.60;99.90;;;;;;5039273;28;20048;-67
2023/12/17 03:48:45;;;;;;;14.75;8.60;;;10.60;99.90;;;;;;5050197;28;20065;-68
2023/12/17 03:51:11;;;;;;;16.88;8.65;;;10.70;99.90;;;;;;5050448;28;20133;-65
2023/12/17 03:53:36;;;;;;;16.77;8.68;;;10.60;99.90;;;;;;5039648;28;20044;-67
2023/12/17 03:56:02;;;;;;;16.75;8.95;;;10.60;99.90;;;;;;5050185;28;20033;-65
2023/12/17 03:58:30;;;;;;;17.77;9.18;;;10.60;99.90;;;;;;5050300;28;20055;-65
2023/12/17 04:00:56;;;;;;;15.48;9.15;;;10.60;99.90;;;;;;5048283;28;20044;-69
2023/12/17 04:03:21;;;;;;;17.23;8.50;;;10.60;99.90;;;;;;5044461;28;20045;-65
2023/12/17 04:05:47;;;;;;;14.80;8.80;;;10.60;99.90;;;;;;5049707;28;20051;-65
2023/12/17 04:08:12;;;;;;;16.98;8.63;;;10.60;99.90;;;;;;5050795;28;20119;-67
2023/12/17 04:10:38;;;;;;;17.50;9.02;;;10.60;99.90;;;;;;5040632;28;20108;-65
2023/12/17 04:13:04;;;;;;;18.40;8.43;;;10.60;99.90;;;;;;5049650;28;20121;-66
2023/12/17 04:15:29;;;;;;;16.55;8.98;;;10.60;99.90;;;;;;5050057;28;20076;-65
2023/12/17 04:17:55;;;;;;;15.40;8.48;;;10.60;99.90;;;;;;5045813;28;20068;-65
2023/12/17 04:20:20;;;;;;;15.98;8.82;;;10.60;99.90;;;;;;5029688;28;20102;-66
2023/12/17 04:22:46;;;;;;;17.92;8.88;;;10.60;99.90;;;;;;5049862;28;20127;-67
2023/12/17 04:25:12;;;;;;;20.10;8.73;;;10.60;99.90;;;;;;5050176;28;20029;-67
2023/12/17 04:27:38;;;;;;;16.90;9.73;;;10.60;99.90;;;;;;5039293;28;20037;-67
2023/12/17 04:30:04;;;;;;;17.80;9.20;;;10.60;99.90;;;;;;5049864;28;20033;-66
2023/12/17 04:32:29;;;;;;;16.02;9.23;;;10.60;99.90;;;;;;5053576;28;20128;-66
2023/12/17 04:34:55;;;;;;;15.77;8.93;;;10.60;99.90;;;;;;5048129;28;20124;-67
2023/12/17 04:37:22;;;;;;;15.63;8.70;;;10.50;99.90;;;;;;5052711;28;20048;-67
2023/12/17 04:39:48;;;;;;;14.77;9.68;;;10.60;99.90;;;;;;5043422;28;20104;-65
2023/12/17 04:42:14;;;;;;;17.67;8.70;;;10.60;99.90;;;;;;5045047;28;20075;-65
2023/12/17 04:44:39;;;;;;;14.27;8.95;;;10.60;99.90;;;;;;5028679;28;20069;-65
2023/12/17 04:47:05;;;;;;;16.08;9.00;;;10.60;99.90;;;;;;5053302;28;20075;-64
2023/12/17 04:49:30;;;;;;;20.05;9.32;;;10.60;99.90;;;;;;5053196;28;20068;-65
2023/12/17 04:51:56;;;;;;;18.75;9.73;;;10.60;99.90;;;;;;5054072;28;20041;-67
2023/12/17 04:54:23;;;;;;;16.65;8.88;;;10.60;99.90;;;;;;5043138;28;20094;-65
2023/12/17 04:56:49;;;;;;;16.63;9.65;;;10.50;99.90;;;;;;5047246;28;20052;-67
2023/12/17 04:59:14;;;;;;;15.95;8.68;;;10.60;99.90;;;;;;5050083;28;20032;-67
2023/12/17 05:01:40;;;;;;;15.50;9.07;;;10.50;99.90;;;;;;5044049;28;20039;-68
2023/12/17 05:04:05;;;;;;;16.00;9.07;;;10.50;99.90;;;;;;5052610;28;20025;-67
2023/12/17 05:06:31;;;;;;;14.95;8.65;;;10.50;99.90;;;;;;5035459;28;20051;-67
2023/12/17 05:08:56;;;;;;;15.45;9.55;;;10.50;99.90;;;;;;5048940;28;20045;-67
2023/12/17 05:11:22;;;;;;;13.35;9.32;;;10.50;99.90;;;;;;5049315;28;20041;-67
2023/12/17 05:13:48;;;;;;;13.80;8.52;;;10.60;99.90;;;;;;5052952;28;20052;-67
2023/12/17 05:16:13;;;;;;;17.55;9.40;;;10.50;99.90;;;;;;5045577;28;20045;-67
2023/12/17 05:18:39;;;;;;;14.95;9.02;;;10.50;99.90;;;;;;5042322;28;20082;-67
2023/12/17 05:21:06;;;;;;;16.15;9.57;;;10.50;99.90;;;;;;5053150;28;20398;-67
2023/12/17 05:23:31;;;;;;;17.30;9.93;;;10.50;99.90;;;;;;5052680;28;20048;-66
2023/12/17 05:25:57;;;;;;;14.20;9.40;;;10.50;99.90;;;;;;5045416;28;20045;-67
2023/12/17 05:28:22;;;;;;;12.88;8.70;;;10.50;99.90;;;;;;5050879;28;20037;-67
2023/12/17 05:30:48;;;;;;;14.23;9.05;;;10.50;99.90;;;;;;5052884;28;20079;-65
2023/12/17 05:33:13;;;;;;;19.83;9.05;;;10.50;99.90;;;;;;5046644;28;20039;-66
2023/12/17 05:35:39;;;;;;;13.40;8.15;;;10.50;99.90;;;;;;5052506;28;20037;-64
2023/12/17 05:38:05;;;;;;;14.98;8.82;;;10.50;99.90;;;;;;5027620;28;20554;-64
2023/12/17 05:40:30;;;;;;;13.20;9.40;;;10.40;99.90;;;;;;5049630;28;20072;-65
2023/12/17 05:42:56;;;;;;;17.55;9.43;;;10.40;99.90;;;;;;5051108;28;20087;-65
2023/12/17 05:45:21;;;;;;;12.38;8.30;;;10.40;99.90;;;;;;5050680;28;20040;-66
2023/12/17 05:47:47;;;;;;;13.50;8.20;;;10.40;99.90;;;;;;5038238;28;20111;-66
2023/12/17 05:50:12;;;;;;;11.75;7.53;;;10.40;99.90;;;;;;5040068;28;20042;-67
2023/12/17 05:52:38;;;;;;;16.27;8.00;;;10.40;99.90;;;;;;5049977;28;20036;-67
2023/12/17 05:55:04;;;;;;;12.40;7.63;;;10.40;99.90;;;;;;5051805;28;20571;-66
2023/12/17 05:57:30;;;;;;;12.93;7.50;;;10.30;99.90;;;;;;5052122;28;20047;-67
2023/12/17 05:59:55;;;;;;;12.80;7.35;;;10.30;99.90;;;;;;5046277;28;20111;-67
2023/12/17 06:02:21;;;;;;;12.60;8.07;;;10.30;99.90;;;;;;5048033;28;20123;-67
2023/12/17 06:04:46;;;;;;;11.93;7.50;;;10.30;99.90;;;;;;5051945;28;20064;-67
2023/12/17 06:07:12;;;;;;;13.23;7.72;;;10.30;99.90;;;;;;5041705;28;20060;-66
2023/12/17 06:09:38;;;;;;;13.27;7.88;;;10.30;99.90;;;;;;5047237;28;20068;-67
2023/12/17 06:12:03;;;;;;;14.00;7.95;;;10.30;99.90;;;;;;5052341;28;20399;-67
2023/12/17 06:14:29;;;;;;;12.55;8.20;;;10.30;99.90;;;;;;5047038;28;20475;-66
2023/12/17 06:16:54;;;;;;;14.38;7.68;;;10.20;99.90;;;;;;5043747;28;20041;-66
2023/12/17 06:19:20;;;;;;;14.20;8.27;;;10.20;99.90;;;;;;5050191;28;20035;-65
2023/12/17 06:21:46;;;;;;;13.43;8.18;;;10.20;99.90;;;;;;5052042;28;20039;-64
2023/12/17 06:29:22;;;;;;;16.88;10.20;;;10.20;99.90;;;;;;5284615;22;20060;-67
2023/12/17 06:31:48;;;;;;;14.60;9.60;;;10.10;99.90;;;;;;5024173;28;20049;-67
2023/12/17 06:34:13;;;;;;;14.40;9.73;;;10.10;99.90;;;;;;5372669;22;20053;-68
2023/12/17 06:36:39;;;;;;;16.38;9.73;;;10.10;99.90;;;;;;5009360;28;20038;-67
2023/12/17 06:39:09;;;;;;;15.73;10.50;;;10.10;99.90;;;;;;4999427;28;20041;-67
2023/12/17 06:41:36;;;;;;;16.30;10.25;;;10.10;99.90;;;;;;5008563;28;20036;-68
2023/12/17 06:44:01;;;;;;;15.48;9.35;;;10.10;99.90;;;;;;5010273;28;20037;-68
2023/12/17 06:46:27;;;;;;;20.45;9.52;;;10.10;99.90;;;;;;4977762;28;20038;-66
2023/12/17 06:48:53;;;;;;;16.88;9.85;;;10.10;99.90;;;;;;4978625;28;20045;-68
2023/12/17 06:51:19;;;;;;;18.27;10.90;;;10.10;99.90;;;;;;5014028;28;20061;-68
2023/12/17 06:53:44;;;;;;;16.25;10.30;;;10.10;99.90;;;;;;4982814;28;20121;-68
2023/12/17 06:56:10;;;;;;;15.75;9.55;;;10.10;99.90;;;;;;5006176;28;20455;-67
2023/12/17 06:58:36;;;;;;;16.27;8.93;;;10.00;99.90;;;;;;4993323;28;20034;-67
2023/12/17 07:01:01;;;;;;;15.30;9.55;;;10.00;99.90;;;;;;5011490;28;20026;-66
2023/12/17 07:03:27;;;;;;;17.13;9.63;;;10.00;99.90;;;;;;5016299;28;20478;-67
2023/12/17 07:05:53;;;;;;;14.70;9.27;;;10.00;99.90;;;;;;4993003;28;20033;-67
2023/12/17 07:08:19;;;;;;;14.65;9.25;;;10.00;99.90;;;;;;4992807;28;20069;-68
2023/12/17 07:10:45;;;;;;;22.27;9.88;;;10.00;99.90;;;;;;4994008;28;20054;-67
2023/12/17 07:13:10;;;;;;;19.05;9.98;;;10.00;99.90;;;;;;4999660;28;20042;-68
2023/12/17 07:15:36;;;;;;;16.95;10.25;;;9.90;99.90;;;;;;4991302;28;20033;-66
2023/12/17 07:18:02;;;;;;;15.63;10.20;;;10.00;99.90;;;;;;5011252;28;20037;-67
2023/12/17 07:20:27;;;;;;;20.63;11.73;;;9.90;99.90;;;;;;5011902;28;20038;-68
2023/12/17 07:22:53;;;;;;;17.63;10.40;;;9.90;99.90;;;;;;4971561;28;20115;-67
2023/12/17 07:25:19;;;;;;;22.17;11.38;;;10.00;99.90;;;;;;5000131;28;20034;-67
2023/12/17 07:27:45;;;;;;;18.42;11.00;;;9.90;99.90;;;;;;5010876;28;20565;-68
2023/12/17 07:30:11;;;;;;;21.00;11.45;;;9.90;99.90;;;;;;5009053;28;20063;-68
2023/12/17 07:32:40;;;;;;;17.08;10.48;;;9.90;99.90;;;;;;4996513;28;20072;-68
2023/12/17 07:35:07;;;;;;;19.30;10.68;;;9.90;99.90;;;;;;4979886;28;20037;-69
2023/12/17 07:37:33;;;;;;;18.52;11.05;;;9.90;99.90;;;;;;4991359;28;20068;-69
2023/12/17 07:39:59;;;;;;;21.67;10.05;;;10.00;99.90;;;;;;4985039;28;20112;-68
2023/12/17 07:42:24;;;;;;;18.92;10.15;;;10.00;99.90;;;;;;5012849;28;20651;-68
2023/12/17 07:44:50;;;;;;;16.48;9.85;;;9.90;99.90;;;;;;5004297;28;20037;-68
2023/12/17 07:47:18;;;;;;;15.00;9.15;;;9.90;99.90;;;;;;5008985;28;20419;-68
2023/12/17 07:49:43;;;;;;;15.93;9.23;;;9.90;99.90;;;;;;5019745;28;20041;-68
2023/12/17 07:52:09;;;;;;;16.92;8.60;;;10.00;99.90;;;;;;5018424;28;20045;-69
2023/12/17 07:54:35;;;;;;;16.55;8.48;;;10.00;99.90;;;;;;4998434;28;20052;-68
2023/12/17 07:57:00;;;;;;;15.30;8.45;;;9.90;99.90;;;;;;5017864;28;20033;-69
2023/12/17 07:59:26;;;;;;;15.68;7.80;;;10.00;99.90;;;;;;5017726;28;20050;-69
2023/12/17 08:01:54;;;;;;;13.07;7.70;;;10.00;99.90;;;;;;5019080;28;20109;-69
2023/12/17 08:04:20;;;;;;;14.75;7.63;;;9.90;99.90;;;;;;5006800;28;20439;-69
2023/12/17 08:06:45;;;;;;;19.85;8.18;;;10.00;99.90;;;;;;5019653;28;20042;-69
2023/12/17 08:09:11;;;;;;;13.93;8.23;;;10.00;99.90;;;;;;5002134;28;20053;-69
2023/12/17 08:11:37;;;;;;;16.85;7.80;;;10.00;99.90;;;;;;4980941;28;20128;-69
2023/12/17 08:14:03;;;;;;;14.95;6.78;;;9.90;99.90;;;;;;5019693;28;20042;-69
2023/12/17 08:16:29;;;;;;;14.30;6.28;;;9.90;99.90;;;;;;4996423;28;20038;-69
2023/12/17 08:18:55;;;;;;;16.67;6.75;;;9.90;99.90;;;;;;4994676;28;20495;-69
2023/12/17 08:21:20;;;;;;;12.80;5.90;;;9.90;99.90;;;;;;4979207;28;20045;-69
2023/12/17 08:23:46;;;;;;;12.45;5.50;;;9.90;99.90;;;;;;4998044;28;20041;-68
2023/12/17 08:26:12;;;;;;;14.25;6.28;;;9.90;99.90;;;;;;5006080;28;20491;-66
2023/12/17 08:28:38;;;;;;;13.85;6.05;;;9.90;99.90;;;;;;4966356;28;20038;-66
2023/12/17 08:31:08;;;;;;;12.80;5.97;;;9.90;99.90;;;;;;5005614;28;20034;-67
2023/12/17 08:33:34;;;;;;;12.88;5.85;;;9.90;99.90;;;;;;4992180;28;20117;-66
2023/12/17 08:35:59;;;;;;;15.23;5.57;;;9.90;99.90;;;;;;4989277;28;20399;-66
2023/12/17 08:38:25;;;;;;;10.82;5.57;;;9.90;99.90;;;;;;4982888;28;20496;-67
2023/12/17 08:40:51;;;;;;;14.18;5.90;;;9.90;99.90;;;;;;4992150;28;20115;-68
2023/12/17 08:43:16;;;;;;;12.10;5.30;;;9.90;99.90;;;;;;5002418;28;20041;-68
2023/12/17 08:45:42;;;;;;;9.82;5.43;;;10.00;99.90;;;;;;5004703;28;20030;-68
2023/12/17 08:48:07;;;;;;;12.90;5.50;;;10.00;99.90;;;;;;5009512;28;20038;-66
2023/12/17 08:50:34;;;;;;;11.35;5.93;;;10.00;99.90;;;;;;5010166;28;20034;-68
2023/12/17 08:53:00;;;;;;;13.23;5.57;;;10.00;99.90;;;;;;4997894;28;20508;-68
2023/12/17 08:55:25;;;;;;;12.48;5.63;;;10.00;99.90;;;;;;4959876;28;20046;-68
2023/12/17 08:57:52;;;;;;;13.52;6.03;;;10.00;99.90;;;;;;4992079;28;20407;-68
2023/12/17 09:00:18;;;;;;;12.73;6.30;;;10.00;99.90;;;;;;5003036;28;20040;-68
2023/12/17 09:02:44;;;;;;;14.30;6.53;;;10.00;99.90;;;;;;4964763;28;20124;-68
2023/12/17 09:05:25;;;;;;;16.38;7.35;;;10.10;99.90;;;;;;5007570;28;20050;-69
2023/12/17 09:07:50;;;;;;;19.67;7.00;;;10.00;99.90;;;;;;4970228;28;20467;-68
2023/12/17 09:10:16;;;;;;;14.75;7.95;;;10.00;99.90;;;;;;4984091;28;20039;-66
2023/12/17 09:21:12;;;;;;;20.60;11.30;;;10.10;99.90;;;;;;5068092;28;20048;-66
2023/12/17 09:23:37;;;;;;;15.57;8.90;;;10.10;99.90;;;;;;5047058;28;20040;-65
2023/12/17 09:28:47;;;;;;;22.52;10.80;;;10.10;99.90;;;;;;5145043;22;20072;-66
2023/12/17 09:31:13;;;;;;;24.20;10.85;;;10.10;99.90;;;;;;5035140;28;20043;-66
2023/12/17 09:33:39;;;;;;;26.35;12.60;;;10.10;99.90;;;;;;5018190;28;20044;-66
2023/12/17 09:36:07;;;;;;;30.33;13.90;;;10.20;99.90;;;;;;5006809;28;20041;-66
2023/12/17 09:38:32;;;;;;;29.67;14.25;;;10.20;99.90;;;;;;5034786;28;20133;-66
2023/12/17 09:43:33;;;;;;;28.02;13.38;;;10.10;99.90;;;;;;5899471;22;20057;-68
2023/12/17 09:45:59;;;;;;;32.03;13.93;;;10.20;99.90;;;;;;5048866;28;20402;-68
2023/12/17 09:53:36;;;;;;;32.60;14.20;;;10.10;99.90;;;;;;5773156;22;20045;-68
2023/12/17 09:56:01;;;;;;;31.23;14.35;;;10.10;99.90;;;;;;5029675;28;20029;-70
2023/12/17 09:58:27;;;;;;;27.27;13.57;;;10.10;99.90;;;;;;5051469;28;20029;-68
2023/12/17 10:00:53;;;;;;;29.48;13.38;;;10.10;99.90;;;;;;5031153;28;20055;-68
2023/12/17 10:03:20;;;;;;;32.80;15.82;;;10.10;99.90;;;;;;5032757;28;20048;-68
2023/12/17 10:08:23;;;;;;;29.30;14.02;;;10.10;99.90;;;;;;5223880;22;20616;-67
2023/12/17 10:10:48;;;;;;;31.92;14.60;;;10.10;99.90;;;;;;5071684;28;20043;-68
2023/12/17 10:13:19;;;;;;;30.52;13.82;;;10.20;99.90;;;;;;5091168;28;20081;-66
2023/12/17 10:15:48;;;;;;;28.40;14.55;;;10.10;99.90;;;;;;5076067;28;20111;-66
2023/12/17 10:18:16;;;;;;;27.35;14.32;;;10.10;99.90;;;;;;5029865;28;20037;-66
2023/12/17 10:20:42;;;;;;;26.88;13.32;;;10.10;99.90;;;;;;5070857;28;20402;-67
2023/12/17 10:23:08;;;;;;;24.75;13.52;;;10.10;99.90;;;;;;5037147;28;20029;-67
2023/12/17 10:25:34;;;;;;;26.33;12.88;;;10.10;99.90;;;;;;5066753;28;20431;-67
2023/12/17 10:28:00;;;;;;;28.48;13.75;;;10.20;99.90;;;;;;5053527;28;20040;-68
2023/12/17 10:33:21;;;;;;;22.98;11.85;;;10.10;99.90;;;;;;5081471;22;20049;-69
2023/12/17 10:35:47;;;;;;;23.92;11.52;;;10.20;99.90;;;;;;5027286;28;20041;-66
2023/12/17 10:38:14;;;;;;;23.35;11.60;;;10.20;99.90;;;;;;5030769;28;20059;-66
2023/12/17 10:40:41;;;;;;;24.85;11.05;;;10.10;99.90;;;;;;5048996;28;20090;-70
2023/12/17 10:43:08;;;;;;;20.05;10.23;;;10.20;99.90;;;;;;5030655;28;20481;-66
2023/12/17 10:45:35;;;;;;;18.20;10.35;;;10.10;99.90;;;;;;5032044;28;20143;-67
2023/12/17 10:48:02;;;;;;;20.83;10.13;;;10.10;99.90;;;;;;5031110;28;20495;-67
2023/12/17 10:50:28;;;;;;;22.63;12.20;;;10.10;99.90;;;;;;5030089;28;20049;-70
2023/12/17 10:52:54;;;;;;;19.30;10.25;;;10.10;99.90;;;;;;5012343;28;20064;-66
2023/12/17 10:55:22;;;;;;;19.27;10.18;;;10.10;99.90;;;;;;5048969;28;20033;-67
2023/12/17 10:58:00;;;;;;;18.23;10.32;;;10.10;99.90;;;;;;5051352;28;20052;-66
2023/12/17 11:00:29;;;;;;;21.60;10.80;;;10.10;99.90;;;;;;5043423;28;20361;-66
2023/12/17 11:02:59;;;;;;;19.13;10.63;;;10.10;99.90;;;;;;5039894;28;20037;-67
2023/12/17 11:05:25;;;;;;;20.65;11.13;;;10.10;99.90;;;;;;5049566;28;20083;-67
2023/12/17 11:07:51;;;;;;;17.98;9.43;;;10.10;99.90;;;;;;5041992;28;20458;-67
2023/12/17 11:10:48;;;;;;;21.60;10.88;;;10.00;99.90;;;;;;5046128;28;20020;-68
2023/12/17 11:13:14;;;;;;;22.08;11.07;;;10.10;99.90;;;;;;5047973;28;20549;-67
2023/12/17 11:15:40;;;;;;;26.27;12.80;;;10.10;99.90;;;;;;5050938;28;20032;-67
2023/12/17 11:18:05;;;;;;;21.70;12.13;;;10.10;99.90;;;;;;5038132;28;20033;-67
2023/12/17 11:20:40;;;;;;;23.45;12.63;;;10.10;99.90;;;;;;5043976;28;20033;-69
2023/12/17 11:23:06;;;;;;;26.75;11.98;;;10.10;99.90;;;;;;5014676;28;20503;-71
2023/12/17 11:25:33;;;;;;;27.98;13.25;;;10.10;99.90;;;;;;5031186;28;20077;-70
2023/12/17 11:27:59;;;;;;;27.80;13.48;;;10.00;99.90;;;;;;5048894;28;20091;-70
2023/12/17 11:34:08;;;;;;;29.80;14.57;;;10.00;99.90;;;;;;5156078;22;20088;-68
2023/12/17 11:36:34;;;;;;;31.15;14.25;;;10.10;99.90;;;;;;5003515;28;20049;-70
2023/12/17 11:39:00;;;;;;;28.90;13.07;;;10.10;99.90;;;;;;5005361;28;20052;-68
2023/12/17 11:41:26;;;;;;;24.50;12.95;;;10.10;99.90;;;;;;4999473;28;20077;-68
2023/12/17 11:43:51;;;;;;;27.98;14.00;;;10.10;99.90;;;;;;5024001;28;20061;-69
2023/12/17 11:46:17;;;;;;;30.42;14.15;;;10.10;99.90;;;;;;5011949;28;20037;-67
2023/12/17 12:03:33;;;;;;;25.92;13.35;;;10.10;99.90;;;;;;5430684;23;20167;-67
2023/12/17 12:09:41;;;;;;;28.55;12.98;;;10.10;99.90;;;;;;5678951;22;20419;-69
2023/12/17 12:12:20;;;;;;;30.55;14.57;;;10.10;99.90;;;;;;5257929;22;20057;-69
2023/12/17 12:15:42;;;;;;;29.02;13.02;;;10.10;99.90;;;;;;5015818;28;20025;-68
2023/12/17 12:22:28;;;;;;;26.60;12.40;;;10.10;99.90;;;;;;5206915;22;20139;-67
2023/12/17 12:24:57;;;;;;;32.35;14.02;;;10.20;99.90;;;;;;5012710;28;20045;-67
2023/12/17 12:27:23;;;;;;;26.35;11.90;;;10.20;99.90;;;;;;5031790;28;20120;-69
2023/12/17 12:29:52;;;;;;;27.20;12.88;;;10.10;99.90;;;;;;5046067;28;20599;-68
2023/12/17 12:32:27;;;;;;;27.90;13.15;;;10.20;99.90;;;;;;5025009;28;20040;-68
2023/12/17 12:37:36;;;;;;;27.35;13.38;;;10.20;99.90;;;;;;5028446;28;20080;-67
2023/12/17 12:40:03;;;;;;;24.38;12.57;;;10.20;99.90;;;;;;5018558;28;20052;-67
2023/12/17 12:42:29;;;;;;;27.30;12.65;;;10.10;99.90;;;;;;5028207;28;20128;-66
2023/12/17 12:44:55;;;;;;;27.23;12.73;;;10.20;99.90;;;;;;5003623;28;20121;-67
2023/12/17 12:47:22;;;;;;;28.52;13.13;;;10.20;99.90;;;;;;5024336;28;21962;-66
2023/12/17 12:49:49;;;;;;;30.15;14.32;;;10.20;99.90;;;;;;5031706;28;20049;-67
2023/12/17 12:52:20;;;;;;;31.50;14.68;;;10.10;99.90;;;;;;5033007;28;20056;-67
2023/12/17 12:54:48;;;;;;;33.08;15.50;;;10.10;99.90;;;;;;5033646;28;20033;-66
2023/12/17 12:57:14;;;;;;;28.42;12.98;;;10.10;99.90;;;;;;5016675;28;20045;-65
2023/12/17 12:59:39;;;;;;;27.48;14.40;;;10.10;99.90;;;;;;5018301;28;20034;-66
2023/12/17 13:02:05;;;;;;;29.80;14.57;;;10.10;99.90;;;;;;5023686;28;20083;-65
2023/12/17 13:04:31;;;;;;;27.25;12.65;;;10.10;99.90;;;;;;5006294;28;20395;-66
2023/12/17 13:06:56;;;;;;;27.63;13.80;;;10.10;99.90;;;;;;5029261;28;20037;-65
2023/12/17 13:09:22;;;;;;;26.25;13.18;;;10.00;99.90;;;;;;5023123;28;20492;-65
2023/12/17 13:11:49;;;;;;;27.65;13.05;;;10.00;99.90;;;;;;5028918;28;20084;-65
2023/12/17 13:14:17;;;;;;;25.27;12.88;;;10.00;99.90;;;;;;5029826;28;20038;-65
2023/12/17 13:16:42;;;;;;;30.23;14.60;;;9.90;99.90;;;;;;5022025;28;20037;-67
2023/12/17 13:19:08;;;;;;;29.92;14.27;;;10.00;99.90;;;;;;5023814;28;20053;-66
2023/12/17 13:21:34;;;;;;;27.23;12.48;;;10.00;99.90;;;;;;5027225;28;20033;-65
2023/12/17 13:23:59;;;;;;;25.35;12.43;;;10.00;99.90;;;;;;5026846;28;20561;-66
2023/12/17 13:26:25;;;;;;;29.27;13.98;;;10.00;99.90;;;;;;5032782;28;20095;-67
2023/12/17 13:28:50;;;;;;;23.77;12.05;;;9.90;99.90;;;;;;5017195;28;20034;-66
2023/12/17 13:31:16;;;;;;;24.30;12.63;;;9.90;99.90;;;;;;5016735;28;20044;-67
2023/12/17 13:33:42;;;;;;;25.90;12.20;;;10.00;99.90;;;;;;5020774;28;20610;-66